createdAt,value
2023-09-17T00:01:20.689Z,12.48
2023-09-17T00:03:47.930Z,12.90
2023-09-17T00:06:14.777Z,10.18
2023-09-17T00:08:41.758Z,11.80
2023-09-17T00:11:08.963Z,10.80
2023-09-17T00:13:36.706Z,10.48
2023-09-17T00:16:03.783Z,11.25
2023-09-17T00:18:31.079Z,12.18
2023-09-17T00:20:58.312Z,12.60
2023-09-17T00:23:25.245Z,14.27
2023-09-17T00:25:52.484Z,15.93
2023-09-17T00:28:19.545Z,15.18
2023-09-17T00:30:46.718Z,13.43
2023-09-17T00:33:13.787Z,11.25
2023-09-17T00:35:41.135Z,10.30
2023-09-17T00:38:08.105Z,10.18
2023-09-17T00:40:38.635Z,10.93
2023-09-17T00:43:05.670Z,12.35
2023-09-17T00:45:33.156Z,11.13
2023-09-17T00:48:01.947Z,12.45
2023-09-17T00:50:29.313Z,12.23
2023-09-17T00:52:56.414Z,14.30
2023-09-17T00:55:23.746Z,11.10
2023-09-17T00:57:51.544Z,11.93
2023-09-17T01:00:22.344Z,12.77
2023-09-17T01:02:50.040Z,12.65
2023-09-17T01:05:18.113Z,14.02
2023-09-17T01:07:45.851Z,10.15
2023-09-17T01:10:12.984Z,11.00
2023-09-17T01:12:41.167Z,9.93
2023-09-17T01:15:09.579Z,14.02
2023-09-17T01:17:36.875Z,13.20
2023-09-17T01:20:23.878Z,13.57
2023-09-17T01:22:57.111Z,12.23
2023-09-17T01:25:32.868Z,12.00
2023-09-17T01:28:02.144Z,12.77
2023-09-17T01:30:29.214Z,13.02
2023-09-17T01:32:56.224Z,14.43
2023-09-17T01:35:23.475Z,13.63
2023-09-17T01:37:56.125Z,13.35
2023-09-17T01:40:24.525Z,13.10
2023-09-17T01:42:53.222Z,11.90
2023-09-17T01:45:21.862Z,11.57
2023-09-17T01:47:50.354Z,12.32
2023-09-17T01:50:18.354Z,11.05
2023-09-17T01:52:45.740Z,11.85
2023-09-17T01:55:13.730Z,11.60
2023-09-17T01:57:43.549Z,9.50
2023-09-17T02:00:22.017Z,11.52
2023-09-17T02:02:51.787Z,12.60
2023-09-17T02:05:21.746Z,11.45
2023-09-17T02:07:49.399Z,13.05
2023-09-17T02:10:16.466Z,13.00
2023-09-17T02:12:43.607Z,11.52
2023-09-17T02:15:13.447Z,10.13
2023-09-17T02:17:41.328Z,10.25
2023-09-17T02:20:09.656Z,10.48
2023-09-17T02:22:36.559Z,10.32
2023-09-17T02:25:05.069Z,10.15
2023-09-17T02:27:32.018Z,11.38
2023-09-17T02:29:59.102Z,9.20
2023-09-17T02:32:26.190Z,11.63
2023-09-17T02:34:53.195Z,10.52
2023-09-17T02:37:20.426Z,9.50
2023-09-17T02:39:47.392Z,10.98
2023-09-17T02:42:14.437Z,12.00
2023-09-17T02:44:41.627Z,9.10
2023-09-17T02:47:08.644Z,10.05
2023-09-17T02:49:35.660Z,10.30
2023-09-17T02:52:02.632Z,10.85
2023-09-17T02:54:29.518Z,9.50
2023-09-17T02:56:56.368Z,11.60
2023-09-17T02:59:23.317Z,12.30
2023-09-17T03:01:50.175Z,15.50
2023-09-17T03:04:17.297Z,11.15
2023-09-17T03:06:44.334Z,12.93
2023-09-17T03:09:12.628Z,13.30
2023-09-17T03:11:40.888Z,11.02
2023-09-17T03:14:07.947Z,10.82
2023-09-17T03:16:35.409Z,11.07
2023-09-17T03:19:02.483Z,11.02
2023-09-17T03:21:29.839Z,10.90
2023-09-17T03:23:56.963Z,10.80
2023-09-17T03:26:25.442Z,11.52
2023-09-17T03:28:52.494Z,10.40
2023-09-17T03:31:19.665Z,9.15
2023-09-17T03:33:46.529Z,9.75
2023-09-17T03:36:14.138Z,11.45
2023-09-17T03:38:41.164Z,10.05
2023-09-17T03:41:08.222Z,10.40
2023-09-17T03:43:36.363Z,11.77
2023-09-17T03:46:07.421Z,12.45
2023-09-17T03:48:34.348Z,12.00
2023-09-17T03:51:01.991Z,9.60
2023-09-17T03:53:31.276Z,10.55
2023-09-17T03:55:58.278Z,10.80
2023-09-17T03:58:25.609Z,9.38
2023-09-17T04:00:52.437Z,12.05
2023-09-17T04:03:20.610Z,10.98
2023-09-17T04:05:52.016Z,11.20
2023-09-17T04:08:19.107Z,11.60
2023-09-17T04:10:46.085Z,10.57
2023-09-17T04:13:13.904Z,10.82
2023-09-17T04:15:40.861Z,12.38
2023-09-17T04:18:07.729Z,13.02
2023-09-17T04:20:35.423Z,10.82
2023-09-17T04:23:03.842Z,11.57
2023-09-17T04:25:31.177Z,12.20
2023-09-17T04:27:58.064Z,10.88
2023-09-17T04:30:25.062Z,12.80
2023-09-17T04:32:54.245Z,10.45
2023-09-17T04:35:21.284Z,10.30
2023-09-17T04:37:50.105Z,12.45
2023-09-17T04:40:19.572Z,12.02
2023-09-17T04:42:49.474Z,11.43
2023-09-17T04:45:39.264Z,11.10
2023-09-17T04:48:07.270Z,10.10
2023-09-17T04:50:35.333Z,9.88
2023-09-17T04:53:02.660Z,12.98
2023-09-17T04:55:29.669Z,11.30
2023-09-17T04:57:56.747Z,12.90
2023-09-17T05:00:23.661Z,11.60
2023-09-17T05:02:51.237Z,11.68
2023-09-17T05:05:22.399Z,10.93
2023-09-17T05:07:52.361Z,13.00
2023-09-17T05:10:19.634Z,12.10
2023-09-17T05:12:46.591Z,12.23
2023-09-17T05:15:13.737Z,11.85
2023-09-17T05:17:41.019Z,10.52
2023-09-17T05:20:08.699Z,12.07
2023-09-17T05:22:36.652Z,11.00
2023-09-17T05:25:05.640Z,11.40
2023-09-17T05:27:32.785Z,12.13
2023-09-17T05:30:01.741Z,12.93
2023-09-17T05:32:29.435Z,12.27
2023-09-17T05:35:01.212Z,13.65
2023-09-17T05:37:29.100Z,12.45
2023-09-17T05:39:56.362Z,12.93
2023-09-17T05:42:23.273Z,11.60
2023-09-17T05:44:50.273Z,13.00
2023-09-17T05:47:17.139Z,11.50
2023-09-17T05:49:44.858Z,13.30
2023-09-17T05:52:11.759Z,11.43
2023-09-17T05:54:38.644Z,12.77
2023-09-17T05:57:05.520Z,12.32
2023-09-17T05:59:32.808Z,11.52
2023-09-17T06:02:00.626Z,12.38
2023-09-17T06:04:28.889Z,12.07
2023-09-17T06:06:56.002Z,11.65
2023-09-17T06:09:23.098Z,12.00
2023-09-17T06:11:51.611Z,12.95
2023-09-17T06:14:18.817Z,14.27
2023-09-17T06:16:56.653Z,13.90
2023-09-17T06:19:25.645Z,13.55
2023-09-17T06:21:54.022Z,13.07
2023-09-17T06:24:20.923Z,14.18
2023-09-17T06:26:47.970Z,16.23
2023-09-17T06:29:14.898Z,15.02
2023-09-17T06:31:42.097Z,13.05
2023-09-17T06:34:10.874Z,16.17
2023-09-17T06:36:38.437Z,14.73
2023-09-17T06:39:07.233Z,15.05
2023-09-17T06:41:37.393Z,14.90
2023-09-17T06:44:06.187Z,12.13
2023-09-17T06:46:33.512Z,13.60
2023-09-17T06:49:00.435Z,12.38
2023-09-17T06:51:27.382Z,15.55
2023-09-17T06:53:54.492Z,12.60
2023-09-17T06:56:24.780Z,15.68
2023-09-17T06:58:51.963Z,15.48
2023-09-17T07:01:20.355Z,15.48
2023-09-17T07:03:48.062Z,13.75
2023-09-17T07:06:14.880Z,13.50
2023-09-17T07:08:41.686Z,13.65
2023-09-17T07:11:08.541Z,12.93
2023-09-17T07:13:35.539Z,12.43
2023-09-17T07:16:02.495Z,10.95
2023-09-17T07:18:31.584Z,13.82
2023-09-17T07:20:59.472Z,14.05
2023-09-17T07:23:26.626Z,11.40
2023-09-17T07:25:53.561Z,9.63
2023-09-17T07:28:21.830Z,11.60
2023-09-17T07:30:54.662Z,11.43
2023-09-17T07:33:21.468Z,11.73
2023-09-17T07:35:49.226Z,12.35
2023-09-17T07:38:17.144Z,12.15
2023-09-17T07:40:44.168Z,11.88
2023-09-17T07:43:10.988Z,15.02
2023-09-17T07:45:38.053Z,13.00
2023-09-17T07:48:05.081Z,13.02
2023-09-17T07:50:32.050Z,13.23
2023-09-17T07:53:00.527Z,13.43
2023-09-17T07:55:27.669Z,13.70
2023-09-17T07:57:54.590Z,10.88
2023-09-17T08:00:22.606Z,11.18
2023-09-17T08:02:50.503Z,11.30
2023-09-17T08:05:18.753Z,11.63
2023-09-17T08:07:46.991Z,9.50
2023-09-17T08:10:15.206Z,11.98
2023-09-17T08:12:42.116Z,10.02
2023-09-17T08:15:09.265Z,11.85
2023-09-17T08:17:36.240Z,10.82
2023-09-17T08:20:04.076Z,8.60
2023-09-17T08:22:31.158Z,10.10
2023-09-17T08:24:58.074Z,8.70
2023-09-17T08:27:24.963Z,9.85
2023-09-17T08:29:51.991Z,10.95
2023-09-17T08:32:19.527Z,12.63
2023-09-17T08:34:46.520Z,9.65
2023-09-17T08:37:13.571Z,10.38
2023-09-17T08:39:40.526Z,6.85
2023-09-17T08:42:08.392Z,8.25
2023-09-17T08:44:37.435Z,8.50
2023-09-17T08:47:04.955Z,7.90
2023-09-17T08:49:32.008Z,9.70
2023-09-17T08:52:04.442Z,9.73
2023-09-17T08:54:42.660Z,8.10
2023-09-17T08:57:13.404Z,9.18
2023-09-17T08:59:44.499Z,6.70
2023-09-17T09:02:22.730Z,6.70
2023-09-17T09:04:52.473Z,8.52
2023-09-17T09:07:23.982Z,8.10
2023-09-17T09:09:53.826Z,8.07
2023-09-17T09:12:22.085Z,8.88
2023-09-17T09:14:49.545Z,9.95
2023-09-17T09:17:16.609Z,7.32
2023-09-17T09:19:43.923Z,8.85
2023-09-17T09:22:10.990Z,8.20
2023-09-17T09:24:47.664Z,8.48
2023-09-17T09:27:14.783Z,8.27
2023-09-17T09:29:44.646Z,8.82
2023-09-17T09:32:13.022Z,8.93
2023-09-17T09:34:42.514Z,8.95
2023-09-17T09:37:10.350Z,9.18
2023-09-17T09:39:37.986Z,9.25
2023-09-17T09:42:10.020Z,11.23
2023-09-17T09:44:37.327Z,9.15
2023-09-17T09:47:05.869Z,10.48
2023-09-17T09:49:43.890Z,8.75
2023-09-17T09:52:15.430Z,10.57
2023-09-17T09:54:43.694Z,9.30
2023-09-17T09:57:14.821Z,10.95
2023-09-17T09:59:45.457Z,10.82
2023-09-17T10:02:14.824Z,11.93
2023-09-17T10:04:42.158Z,10.13
2023-09-17T10:07:09.678Z,8.13
2023-09-17T10:09:37.589Z,10.10
2023-09-17T10:12:05.370Z,8.18
2023-09-17T10:14:39.038Z,8.13
2023-09-17T10:17:11.574Z,9.38
2023-09-17T10:19:39.494Z,8.05
2023-09-17T10:22:13.034Z,7.35
2023-09-17T10:24:40.653Z,6.47
2023-09-17T10:27:10.202Z,7.10
2023-09-17T10:29:39.568Z,7.10
2023-09-17T10:32:07.140Z,9.07
2023-09-17T10:34:36.842Z,7.57
2023-09-17T10:37:05.069Z,7.05
2023-09-17T10:39:37.874Z,8.63
2023-09-17T10:42:07.427Z,8.00
2023-09-17T10:44:38.154Z,8.88
2023-09-17T10:47:12.758Z,8.43
2023-09-17T10:49:40.315Z,8.38
2023-09-17T10:52:09.272Z,8.27
2023-09-17T10:54:36.588Z,9.18
2023-09-17T10:57:17.225Z,11.73
2023-09-17T10:59:45.659Z,9.65
2023-09-17T11:02:15.221Z,10.43
2023-09-17T11:04:43.892Z,11.05
2023-09-17T11:07:14.918Z,8.90
2023-09-17T11:09:43.429Z,10.13
2023-09-17T11:12:10.780Z,7.47
2023-09-17T11:14:39.105Z,9.30
2023-09-17T11:17:10.628Z,8.85
2023-09-17T11:19:37.568Z,8.20
2023-09-17T11:22:05.200Z,10.25
2023-09-17T11:24:33.695Z,9.95
2023-09-17T11:27:05.886Z,6.47
2023-09-17T11:29:41.044Z,7.95
2023-09-17T11:32:08.732Z,7.15
2023-09-17T11:34:38.032Z,9.57
2023-09-17T11:37:06.353Z,7.55
2023-09-17T11:39:35.567Z,7.93
2023-09-17T11:42:04.913Z,8.05
2023-09-17T11:44:34.775Z,9.23
2023-09-17T11:47:07.543Z,6.70
2023-09-17T11:49:35.523Z,6.40
2023-09-17T11:52:11.834Z,6.90
2023-09-17T11:54:52.331Z,8.23
2023-09-17T11:57:28.547Z,5.93
2023-09-17T12:02:28.611Z,5.85
2023-09-17T12:04:56.208Z,5.65
2023-09-17T12:07:23.940Z,7.70
2023-09-17T12:10:02.557Z,6.80
2023-09-17T12:12:36.363Z,5.70
2023-09-17T12:15:10.935Z,7.38
2023-09-17T12:17:45.033Z,6.43
2023-09-17T12:20:32.807Z,6.80
2023-09-17T12:23:04.554Z,8.07
2023-09-17T12:25:44.394Z,6.18
2023-09-17T12:28:12.605Z,10.23
2023-09-17T12:30:40.075Z,8.77
2023-09-17T12:33:07.516Z,7.82
2023-09-17T12:35:36.343Z,8.38
2023-09-17T12:38:04.818Z,6.53
2023-09-17T12:40:34.325Z,6.32
2023-09-17T12:43:09.512Z,6.80
2023-09-17T12:45:38.996Z,8.50
2023-09-17T12:48:09.240Z,6.82
2023-09-17T12:50:41.728Z,7.72
2023-09-17T12:53:11.142Z,6.60
2023-09-17T12:55:38.346Z,7.88
2023-09-17T12:58:10.884Z,5.63
2023-09-17T13:00:39.539Z,6.82
2023-09-17T13:03:13.715Z,5.90
2023-09-17T13:05:42.736Z,6.90
2023-09-17T13:08:10.592Z,7.22
2023-09-17T13:10:43.725Z,5.88
2023-09-17T13:13:20.525Z,5.40
2023-09-17T13:15:47.840Z,4.78
2023-09-17T13:18:18.783Z,5.32
2023-09-17T13:20:49.219Z,5.15
2023-09-17T13:23:17.767Z,6.22
2023-09-17T13:25:46.100Z,5.13
2023-09-17T13:28:15.990Z,6.82
2023-09-17T13:33:15.119Z,6.80
2023-09-17T13:35:44.627Z,5.80
2023-09-17T13:38:14.094Z,6.35
2023-09-17T13:40:52.860Z,6.15
2023-09-17T13:43:20.203Z,5.35
2023-09-17T13:45:58.020Z,6.00
2023-09-17T13:48:26.142Z,5.90
2023-09-17T13:50:56.496Z,5.53
2023-09-17T13:53:24.542Z,5.03
2023-09-17T13:55:51.685Z,6.47
2023-09-17T13:58:19.650Z,5.63
2023-09-17T14:00:46.637Z,6.43
2023-09-17T14:03:16.803Z,6.20
2023-09-17T14:05:44.620Z,5.93
2023-09-17T14:08:13.212Z,6.32
2023-09-17T14:10:43.020Z,6.72
2023-09-17T14:15:38.166Z,5.28
2023-09-17T14:18:05.576Z,5.28
2023-09-17T14:20:32.866Z,6.32
2023-09-17T14:23:00.343Z,5.55
2023-09-17T14:25:27.922Z,5.82
2023-09-17T14:27:55.563Z,6.20
2023-09-17T14:30:23.303Z,5.50
2023-09-17T14:32:52.443Z,6.18
2023-09-17T14:35:19.768Z,4.85
2023-09-17T14:37:48.172Z,4.80
2023-09-17T14:40:17.234Z,4.75
2023-09-17T14:42:44.571Z,6.22
2023-09-17T14:45:11.700Z,6.97
2023-09-17T14:47:41.915Z,5.18
2023-09-17T14:50:13.114Z,5.85
2023-09-17T14:52:43.315Z,8.05
2023-09-17T14:55:15.833Z,6.07
2023-09-17T14:57:43.510Z,6.13
2023-09-17T15:00:15.971Z,4.78
2023-09-17T15:02:43.892Z,3.70
2023-09-17T15:05:12.404Z,5.35
2023-09-17T15:07:43.735Z,7.35
2023-09-17T15:10:11.288Z,3.80
2023-09-17T15:12:38.868Z,5.03
2023-09-17T15:15:07.563Z,2.92
2023-09-17T15:17:36.794Z,3.80
2023-09-17T15:20:05.712Z,3.28
2023-09-17T15:22:34.750Z,4.90
2023-09-17T15:25:01.715Z,3.30
2023-09-17T15:27:29.249Z,2.97
2023-09-17T15:29:56.192Z,3.30
2023-09-17T15:32:24.152Z,3.78
2023-09-17T15:34:51.564Z,3.45
2023-09-17T15:37:18.648Z,3.85
2023-09-17T15:39:45.928Z,5.13
2023-09-17T15:42:15.534Z,6.53
2023-09-17T15:44:42.859Z,3.45
2023-09-17T15:47:10.132Z,2.97
2023-09-17T15:49:37.000Z,6.80
2023-09-17T15:52:05.867Z,5.90
2023-09-17T15:54:33.248Z,5.15
2023-09-17T15:57:00.392Z,5.40
2023-09-17T15:59:27.300Z,3.63
2023-09-17T16:01:54.246Z,9.07
2023-09-17T16:04:21.628Z,3.40
2023-09-17T16:06:48.816Z,4.55
2023-09-17T16:09:26.325Z,5.15
2023-09-17T16:11:55.734Z,4.32
2023-09-17T16:14:22.589Z,3.97
2023-09-17T16:16:49.457Z,4.82
2023-09-17T16:19:16.225Z,9.52
2023-09-17T16:21:43.140Z,4.85
2023-09-17T16:24:10.638Z,5.57
2023-09-17T16:26:39.721Z,6.15
2023-09-17T16:29:07.682Z,7.40
2023-09-17T16:31:34.640Z,7.65
2023-09-17T16:34:01.520Z,7.05
2023-09-17T16:36:28.655Z,8.30
2023-09-17T16:38:57.676Z,5.70
2023-09-17T16:41:24.700Z,5.68
2023-09-17T16:43:51.822Z,6.43
2023-09-17T16:46:19.104Z,5.35
2023-09-17T16:48:48.215Z,4.75
2023-09-17T16:51:16.827Z,5.78
2023-09-17T16:53:43.954Z,5.40
2023-09-17T16:56:13.494Z,4.50
2023-09-17T16:58:43.346Z,4.40
2023-09-17T17:01:10.260Z,5.55
2023-09-17T17:03:37.117Z,4.63
2023-09-17T17:06:04.150Z,5.05
2023-09-17T17:08:30.975Z,6.60
2023-09-17T17:10:58.650Z,6.00
2023-09-17T17:13:25.830Z,4.22
2023-09-17T17:15:52.652Z,5.90
2023-09-17T17:18:19.454Z,5.03
2023-09-17T17:20:46.401Z,5.90
2023-09-17T17:23:15.043Z,4.70
2023-09-17T17:25:45.262Z,4.20
2023-09-17T17:28:12.303Z,4.32
2023-09-17T17:30:39.143Z,5.93
2023-09-17T17:33:06.265Z,5.43
2023-09-17T17:35:36.513Z,6.25
2023-09-17T17:38:06.551Z,5.00
2023-09-17T17:40:33.610Z,4.60
2023-09-17T17:43:00.495Z,5.85
2023-09-17T17:45:27.455Z,6.93
2023-09-17T17:47:55.870Z,8.55
2023-09-17T17:50:23.287Z,5.75
2023-09-17T17:52:50.193Z,6.43
2023-09-17T17:55:17.234Z,6.43
2023-09-17T17:57:44.181Z,5.28
2023-09-17T18:00:11.911Z,7.32
2023-09-17T18:02:42.887Z,5.90
2023-09-17T18:05:10.853Z,6.40
2023-09-17T18:07:39.594Z,7.20
2023-09-17T18:10:08.598Z,7.97
2023-09-17T18:12:35.760Z,9.68
2023-09-17T18:15:06.245Z,5.88
2023-09-17T18:17:34.573Z,7.85
2023-09-17T18:20:04.762Z,8.75
2023-09-17T18:22:31.928Z,7.70
2023-09-17T18:25:00.158Z,7.63
2023-09-17T18:27:28.629Z,6.75
2023-09-17T18:29:58.167Z,7.63
2023-09-17T18:32:27.555Z,8.43
2023-09-17T18:34:54.824Z,8.00
2023-09-17T18:37:22.173Z,8.80
2023-09-17T18:39:49.736Z,7.28
2023-09-17T18:42:18.946Z,8.50
2023-09-17T18:44:49.625Z,7.05
2023-09-17T18:47:21.661Z,7.22
2023-09-17T18:50:00.097Z,10.05
2023-09-17T18:52:40.244Z,8.55
2023-09-17T18:55:07.905Z,8.32
2023-09-17T18:57:35.013Z,8.13
2023-09-17T19:00:05.914Z,9.77
2023-09-17T19:02:33.239Z,7.93
2023-09-17T19:05:07.325Z,11.48
2023-09-17T19:07:35.522Z,7.15
2023-09-17T19:10:07.429Z,7.93
2023-09-17T19:12:34.549Z,9.18
2023-09-17T19:15:01.790Z,9.10
2023-09-17T19:17:40.651Z,9.68
2023-09-17T19:20:08.901Z,10.98
2023-09-17T19:22:38.872Z,10.20
2023-09-17T19:25:16.791Z,11.88
2023-09-17T19:27:46.187Z,8.52
2023-09-17T19:30:16.149Z,8.05
2023-09-17T19:32:56.842Z,8.07
2023-09-17T19:35:28.591Z,9.43
2023-09-17T19:38:03.612Z,9.68
2023-09-17T19:40:33.125Z,9.13
2023-09-17T19:43:00.291Z,7.60
2023-09-17T19:45:28.047Z,6.07
2023-09-17T19:47:58.730Z,6.25
2023-09-17T19:50:25.952Z,6.82
2023-09-17T19:53:00.807Z,5.97
2023-09-17T19:55:28.195Z,6.80
2023-09-17T19:57:55.575Z,6.45
2023-09-17T20:00:22.897Z,5.40
2023-09-17T20:03:05.272Z,6.50
2023-09-17T20:05:46.273Z,7.22
2023-09-17T20:08:15.921Z,3.50
2023-09-17T20:11:00.461Z,5.05
2023-09-17T20:13:29.982Z,2.63
2023-09-17T20:16:00.150Z,4.22
2023-09-17T20:18:28.738Z,4.13
2023-09-17T20:20:57.674Z,3.53
2023-09-17T20:23:26.923Z,5.35
2023-09-17T20:25:54.045Z,5.80
2023-09-17T20:28:21.250Z,4.75
2023-09-17T20:30:52.376Z,5.30
2023-09-17T20:33:22.374Z,5.97
2023-09-17T20:35:54.707Z,6.80
2023-09-17T20:38:26.210Z,5.55
2023-09-17T20:41:03.654Z,4.65
2023-09-17T20:43:42.630Z,5.30
2023-09-17T20:46:12.946Z,6.32
2023-09-17T20:48:50.777Z,9.02
2023-09-17T20:51:31.558Z,5.45
2023-09-17T20:54:02.931Z,5.30
2023-09-17T20:56:38.784Z,5.28
2023-09-17T20:59:07.345Z,7.13
2023-09-17T21:01:36.764Z,5.68
2023-09-17T21:04:06.308Z,4.97
2023-09-17T21:06:33.492Z,6.88
2023-09-17T21:09:05.166Z,5.20
2023-09-17T21:11:32.252Z,6.70
2023-09-17T21:14:07.847Z,6.60
2023-09-17T21:16:34.968Z,9.07
2023-09-17T21:19:02.302Z,6.30
2023-09-17T21:21:35.036Z,5.55
2023-09-17T21:24:04.161Z,6.25
2023-09-17T21:26:34.131Z,5.78
2023-09-17T21:29:04.951Z,5.53
2023-09-17T21:31:36.793Z,6.53
2023-09-17T21:34:04.442Z,7.25
2023-09-17T21:36:35.980Z,5.00
2023-09-17T21:39:03.950Z,6.00
2023-09-17T21:41:32.762Z,6.22
2023-09-17T21:44:06.405Z,9.05
2023-09-17T21:46:41.921Z,6.60
2023-09-17T21:49:22.857Z,6.20
2023-09-17T21:51:55.708Z,5.82
2023-09-17T21:54:25.312Z,5.40
2023-09-17T21:56:58.117Z,5.68
2023-09-17T21:59:30.723Z,6.28
2023-09-17T22:02:00.776Z,7.88
2023-09-17T22:04:32.324Z,4.53
2023-09-17T22:07:00.492Z,4.80
2023-09-17T22:09:30.908Z,7.28
2023-09-17T22:12:03.928Z,4.95
2023-09-17T22:14:43.577Z,5.20
2023-09-17T22:17:23.460Z,5.10
2023-09-17T22:19:57.148Z,6.43
2023-09-17T22:22:25.616Z,5.43
2023-09-17T22:25:03.785Z,4.90
2023-09-17T22:27:36.105Z,5.60
2023-09-17T22:30:05.988Z,4.85
2023-09-17T22:32:33.503Z,5.40
2023-09-17T22:35:14.724Z,5.43
2023-09-17T22:37:49.233Z,5.93
2023-09-17T22:40:16.653Z,4.45
2023-09-17T22:43:00.527Z,5.88
2023-09-17T22:45:39.542Z,5.05
2023-09-17T22:48:11.086Z,6.18
2023-09-17T22:50:41.474Z,4.75
2023-09-17T22:53:19.638Z,5.78
2023-09-17T22:56:01.569Z,4.65
2023-09-17T22:58:30.503Z,5.43
2023-09-17T23:01:11.716Z,8.50
2023-09-17T23:03:40.297Z,4.95
2023-09-17T23:06:10.024Z,5.65
2023-09-17T23:08:46.562Z,3.78
2023-09-17T23:11:15.634Z,5.40
2023-09-17T23:13:49.191Z,4.40
2023-09-17T23:16:16.756Z,5.75
2023-09-17T23:18:51.702Z,4.53
2023-09-17T23:21:32.035Z,4.10
2023-09-17T23:24:01.599Z,5.05
2023-09-17T23:26:40.359Z,6.57
2023-09-17T23:29:13.784Z,5.10
2023-09-17T23:31:44.132Z,4.90
2023-09-17T23:34:12.492Z,4.95
2023-09-17T23:36:40.888Z,4.15
2023-09-17T23:39:13.973Z,4.10
2023-09-17T23:41:44.138Z,3.33
2023-09-17T23:44:13.468Z,4.63
2023-09-17T23:46:41.101Z,4.93
2023-09-17T23:49:10.933Z,4.72
2023-09-17T23:51:40.828Z,4.38
2023-09-17T23:54:15.456Z,5.60
2023-09-17T23:56:45.104Z,5.43
2023-09-17T23:59:33.606Z,4.90
